createdAt,value
2019-01-27T00:01:07.609Z,2.10
2019-01-27T00:03:41.648Z,2.10
2019-01-27T00:06:14.355Z,2.00
2019-01-27T00:08:43.668Z,1.90
2019-01-27T00:11:13.668Z,2.00
2019-01-27T00:13:43.044Z,2.00
2019-01-27T00:16:15.838Z,2.00
2019-01-27T00:18:45.265Z,2.00
2019-01-27T00:21:18.185Z,2.00
2019-01-27T00:23:47.551Z,1.90
2019-01-27T00:26:17.960Z,1.90
2019-01-27T00:28:47.484Z,1.90
2019-01-27T00:31:19.235Z,1.90
2019-01-27T00:33:48.552Z,1.80
2019-01-27T00:36:18.584Z,1.90
2019-01-27T00:38:47.962Z,1.80
2019-01-27T00:41:18.564Z,1.80
2019-01-27T00:43:51.543Z,1.80
2019-01-27T00:46:21.597Z,1.80
2019-01-27T00:48:52.015Z,1.90
2019-01-27T00:51:23.080Z,1.90
2019-01-27T00:53:53.178Z,1.90
2019-01-27T00:56:23.444Z,1.90
2019-01-27T00:58:52.998Z,1.80
2019-01-27T01:01:22.372Z,1.80
2019-01-27T01:03:52.794Z,1.80
2019-01-27T01:06:23.239Z,1.70
2019-01-27T01:08:53.327Z,1.80
2019-01-27T01:11:23.426Z,1.80
2019-01-27T01:13:53.797Z,1.90
2019-01-27T01:16:26.325Z,1.80
2019-01-27T01:19:00.671Z,1.80
2019-01-27T01:21:34.284Z,1.80
2019-01-27T01:24:03.666Z,1.80
2019-01-27T01:26:34.227Z,1.90
2019-01-27T01:29:03.867Z,1.90
2019-01-27T01:31:33.375Z,1.90
2019-01-27T01:34:03.225Z,1.90
2019-01-27T01:36:33.145Z,1.90
2019-01-27T01:39:02.928Z,2.00
2019-01-27T01:41:32.668Z,2.00
2019-01-27T01:44:03.195Z,1.90
2019-01-27T01:46:32.929Z,1.90
2019-01-27T01:49:03.045Z,2.00
2019-01-27T01:51:38.467Z,2.00
2019-01-27T01:54:07.839Z,2.10
2019-01-27T01:56:37.775Z,2.10
2019-01-27T01:59:07.160Z,2.10
2019-01-27T02:01:36.543Z,2.10
2019-01-27T02:04:06.879Z,2.10
2019-01-27T02:06:41.861Z,2.10
2019-01-27T02:09:12.081Z,2.10
2019-01-27T02:11:42.770Z,2.20
2019-01-27T02:14:12.192Z,2.30
2019-01-27T02:16:42.494Z,2.30
2019-01-27T02:19:11.899Z,2.20
2019-01-27T02:21:43.287Z,2.30
2019-01-27T02:24:12.650Z,2.30
2019-01-27T02:26:42.082Z,2.20
2019-01-27T02:29:11.469Z,2.20
2019-01-27T02:31:40.842Z,2.20
2019-01-27T02:34:10.969Z,2.20
2019-01-27T02:36:44.417Z,2.20
2019-01-27T02:39:14.049Z,2.30
2019-01-27T02:41:44.588Z,2.20
2019-01-27T02:44:14.003Z,2.30
2019-01-27T02:46:43.581Z,2.30
2019-01-27T02:49:14.352Z,2.30
2019-01-27T02:51:44.027Z,2.40
2019-01-27T02:54:13.976Z,2.40
2019-01-27T02:56:43.373Z,2.40
2019-01-27T02:59:13.679Z,2.40
2019-01-27T03:01:42.996Z,2.30
2019-01-27T03:04:12.404Z,2.20
2019-01-27T03:06:51.065Z,2.10
2019-01-27T03:09:23.649Z,2.00
2019-01-27T03:11:53.492Z,2.00
2019-01-27T03:14:23.520Z,1.90
2019-01-27T03:16:57.762Z,1.90
2019-01-27T03:19:26.537Z,1.90
2019-01-27T03:21:55.917Z,1.90
2019-01-27T03:24:28.986Z,1.90
2019-01-27T03:26:58.914Z,1.80
2019-01-27T03:29:29.189Z,1.80
2019-01-27T03:31:59.357Z,1.80
2019-01-27T03:34:28.741Z,1.80
2019-01-27T03:36:59.377Z,1.80
2019-01-27T03:39:29.486Z,1.80
2019-01-27T03:41:59.424Z,1.80
2019-01-27T03:44:31.781Z,1.70
2019-01-27T03:47:07.067Z,1.80
2019-01-27T03:49:36.484Z,1.70
2019-01-27T03:52:07.890Z,1.70
2019-01-27T03:54:37.232Z,1.70
2019-01-27T03:57:08.637Z,1.70
2019-01-27T03:59:38.653Z,1.60
2019-01-27T04:02:08.085Z,1.70
2019-01-27T04:04:37.506Z,1.80
2019-01-27T04:07:06.889Z,1.80
2019-01-27T04:09:36.468Z,1.80
2019-01-27T04:12:07.169Z,1.70
2019-01-27T04:14:37.266Z,1.70
2019-01-27T04:17:08.141Z,1.80
2019-01-27T04:19:37.646Z,1.70
2019-01-27T04:22:07.380Z,1.70
2019-01-27T04:24:41.346Z,1.60
2019-01-27T04:27:14.609Z,1.60
2019-01-27T04:29:44.669Z,1.60
2019-01-27T04:32:14.002Z,1.60
2019-01-27T04:34:45.405Z,1.70
2019-01-27T04:37:17.370Z,1.80
2019-01-27T04:39:49.393Z,1.80
2019-01-27T04:42:19.991Z,1.80
2019-01-27T04:44:49.375Z,1.70
2019-01-27T04:47:21.304Z,1.70
2019-01-27T04:49:51.358Z,1.60
2019-01-27T04:52:21.788Z,1.50
2019-01-27T04:54:51.456Z,1.50
2019-01-27T04:57:21.298Z,1.50
2019-01-27T04:59:50.677Z,1.50
2019-01-27T05:02:20.092Z,1.50
2019-01-27T05:04:49.504Z,1.40
2019-01-27T05:07:19.633Z,1.40
2019-01-27T05:09:50.117Z,1.50
2019-01-27T05:12:21.155Z,1.50
2019-01-27T05:14:50.821Z,1.50
2019-01-27T05:17:21.446Z,1.50
2019-01-27T05:19:50.847Z,1.50
2019-01-27T05:22:20.320Z,1.60
2019-01-27T05:24:49.692Z,1.60
2019-01-27T05:27:19.762Z,1.60
2019-01-27T05:29:49.111Z,1.60
2019-01-27T05:32:18.871Z,1.60
2019-01-27T05:34:48.765Z,1.60
2019-01-27T05:37:22.123Z,1.60
2019-01-27T05:39:53.656Z,1.70
2019-01-27T05:42:22.998Z,1.70
2019-01-27T05:44:52.373Z,1.70
2019-01-27T05:47:21.980Z,1.70
2019-01-27T05:49:52.087Z,1.70
2019-01-27T05:52:21.494Z,1.80
2019-01-27T05:54:50.893Z,1.80
2019-01-27T05:57:21.617Z,1.90
2019-01-27T05:59:51.883Z,1.90
2019-01-27T06:02:21.435Z,2.00
2019-01-27T06:04:51.221Z,2.00
2019-01-27T06:07:20.608Z,2.00
2019-01-27T06:09:52.673Z,2.00
2019-01-27T06:12:22.787Z,2.00
2019-01-27T06:14:52.502Z,2.10
2019-01-27T06:17:21.898Z,2.20
2019-01-27T06:19:51.326Z,2.20
2019-01-27T06:22:21.041Z,2.20
2019-01-27T06:24:50.784Z,2.30
2019-01-27T06:27:20.569Z,2.40
2019-01-27T06:29:51.158Z,2.40
2019-01-27T06:32:35.544Z,2.50
2019-01-27T06:35:05.817Z,2.50
2019-01-27T06:37:39.029Z,2.60
2019-01-27T06:40:08.673Z,2.50
2019-01-27T06:42:39.061Z,2.60
2019-01-27T06:45:08.750Z,2.70
2019-01-27T06:47:38.152Z,2.70
2019-01-27T06:50:08.853Z,2.70
2019-01-27T06:52:38.281Z,2.70
2019-01-27T06:55:10.364Z,2.60
2019-01-27T06:57:39.816Z,2.60
2019-01-27T07:00:27.312Z,2.60
2019-01-27T07:03:03.467Z,2.60
2019-01-27T07:05:47.797Z,2.60
2019-01-27T07:08:40.553Z,2.60
2019-01-27T07:11:36.459Z,2.60
2019-01-27T07:14:16.558Z,2.60
2019-01-27T07:17:03.593Z,2.50
2019-01-27T07:20:05.158Z,2.50
2019-01-27T07:22:56.180Z,2.50
2019-01-27T07:25:49.070Z,2.60
2019-01-27T07:28:36.028Z,2.60
2019-01-27T07:31:27.869Z,2.70
2019-01-27T07:34:17.436Z,2.70
2019-01-27T07:36:57.623Z,2.70
2019-01-27T07:39:42.613Z,2.70
2019-01-27T07:42:33.895Z,2.70
2019-01-27T07:45:18.747Z,2.80
2019-01-27T07:48:14.222Z,2.80
2019-01-27T07:51:09.597Z,2.80
2019-01-27T07:53:56.120Z,2.90
2019-01-27T07:56:52.007Z,3.00
2019-01-27T07:59:30.828Z,3.10
2019-01-27T08:02:34.554Z,3.10
2019-01-27T08:05:15.808Z,3.30
2019-01-27T08:07:58.741Z,3.30
2019-01-27T08:11:04.105Z,3.40
2019-01-27T08:13:42.153Z,3.50
2019-01-27T08:17:03.611Z,3.50
2019-01-27T08:19:49.903Z,3.60
2019-01-27T08:22:37.600Z,3.60
2019-01-27T08:25:48.838Z,3.80
2019-01-27T08:28:25.813Z,3.80
2019-01-27T08:31:12.922Z,3.80
2019-01-27T08:34:17.212Z,3.80
2019-01-27T08:37:06.086Z,3.70
2019-01-27T08:40:04.606Z,3.70
2019-01-27T08:42:56.464Z,3.80
2019-01-27T08:45:33.644Z,3.80
2019-01-27T08:48:04.676Z,4.00
2019-01-27T08:50:34.184Z,4.30
2019-01-27T08:53:04.260Z,4.60
2019-01-27T08:55:33.646Z,5.20
2019-01-27T08:58:03.038Z,6.00
2019-01-27T09:00:39.624Z,7.10
2019-01-27T09:03:32.075Z,8.50
2019-01-27T09:06:21.530Z,9.50
2019-01-27T09:09:08.449Z,10.20
2019-01-27T09:12:03.125Z,10.20
2019-01-27T09:14:45.272Z,10.00
2019-01-27T09:17:42.360Z,9.60
2019-01-27T09:20:49.119Z,9.10
2019-01-27T09:23:34.100Z,8.50
2019-01-27T09:26:21.233Z,7.80
2019-01-27T09:29:09.928Z,7.20
2019-01-27T09:32:03.359Z,6.70
2019-01-27T09:34:47.700Z,6.40
2019-01-27T09:37:49.232Z,6.20
2019-01-27T09:40:34.733Z,6.00
2019-01-27T09:43:22.725Z,6.00
2019-01-27T09:46:11.935Z,5.90
2019-01-27T09:48:54.553Z,5.90
2019-01-27T09:51:50.370Z,5.90
2019-01-27T09:54:36.374Z,5.90
2019-01-27T09:57:38.118Z,5.90
2019-01-27T10:00:31.993Z,5.90
2019-01-27T10:03:35.504Z,6.00
2019-01-27T10:06:26.975Z,6.00
2019-01-27T10:09:18.969Z,6.00
2019-01-27T10:12:10.096Z,6.00
2019-01-27T10:15:07.855Z,6.00
2019-01-27T10:17:56.292Z,6.00
2019-01-27T10:20:44.759Z,6.00
2019-01-27T10:23:32.285Z,6.00
2019-01-27T10:26:30.518Z,6.00
2019-01-27T10:29:10.517Z,6.00
2019-01-27T10:32:03.442Z,6.00
2019-01-27T10:34:59.464Z,6.00
2019-01-27T10:37:55.084Z,5.90
2019-01-27T10:40:39.849Z,6.10
2019-01-27T10:43:34.041Z,6.20
2019-01-27T10:46:30.240Z,6.20
2019-01-27T10:49:18.254Z,6.30
2019-01-27T10:51:56.037Z,6.50
2019-01-27T10:54:44.441Z,6.80
2019-01-27T10:57:38.728Z,7.00
2019-01-27T11:00:29.072Z,7.20
2019-01-27T11:03:05.513Z,7.40
2019-01-27T11:06:02.423Z,7.40
2019-01-27T11:08:44.664Z,7.50
2019-01-27T11:11:38.226Z,7.40
2019-01-27T11:14:23.223Z,7.20
2019-01-27T11:17:12.106Z,7.20
2019-01-27T11:20:01.003Z,6.90
2019-01-27T11:23:06.274Z,7.00
2019-01-27T11:25:59.941Z,7.00
2019-01-27T11:28:45.436Z,7.20
2019-01-27T11:31:41.604Z,7.40
2019-01-27T11:34:23.587Z,7.50
2019-01-27T11:37:10.610Z,7.60
2019-01-27T11:40:05.519Z,7.80
2019-01-27T11:43:00.836Z,7.80
2019-01-27T11:45:46.137Z,7.80
2019-01-27T11:48:33.699Z,7.80
2019-01-27T11:51:11.546Z,7.80
2019-01-27T11:53:40.898Z,7.90
2019-01-27T11:56:10.275Z,7.90
2019-01-27T11:58:39.690Z,7.90
2019-01-27T12:01:09.091Z,8.00
2019-01-27T12:03:38.460Z,8.00
2019-01-27T12:06:09.777Z,7.80
2019-01-27T12:08:39.129Z,7.70
2019-01-27T12:11:09.125Z,7.80
2019-01-27T12:13:38.748Z,7.70
2019-01-27T12:16:08.188Z,7.60
2019-01-27T12:18:39.993Z,7.70
2019-01-27T12:21:11.885Z,7.60
2019-01-27T12:23:45.503Z,7.80
2019-01-27T12:26:22.339Z,7.90
2019-01-27T12:28:51.737Z,8.00
2019-01-27T12:31:21.108Z,8.00
2019-01-27T12:33:50.521Z,8.00
2019-01-27T12:36:21.320Z,8.20
2019-01-27T12:38:50.667Z,8.20
2019-01-27T12:41:20.057Z,8.30
2019-01-27T12:43:54.670Z,8.20
2019-01-27T12:46:28.184Z,8.30
2019-01-27T12:48:57.547Z,8.30
2019-01-27T12:51:33.991Z,8.20
2019-01-27T12:54:04.493Z,8.10
2019-01-27T12:56:33.892Z,8.10
2019-01-27T12:59:04.989Z,8.00
2019-01-27T13:01:34.493Z,7.90
2019-01-27T13:04:05.825Z,7.80
2019-01-27T13:06:41.089Z,7.70
2019-01-27T13:09:10.637Z,7.70
2019-01-27T13:11:42.511Z,7.60
2019-01-27T13:14:16.022Z,7.50
2019-01-27T13:16:45.385Z,7.30
2019-01-27T13:19:17.091Z,7.30
2019-01-27T13:21:47.081Z,7.40
2019-01-27T13:24:21.618Z,7.40
2019-01-27T13:26:50.904Z,7.40
2019-01-27T13:29:23.363Z,7.40
2019-01-27T13:31:56.183Z,7.40
2019-01-27T13:34:29.038Z,7.40
2019-01-27T13:36:58.649Z,7.40
2019-01-27T13:39:30.213Z,7.40
2019-01-27T13:42:01.758Z,7.40
2019-01-27T13:44:35.276Z,7.40
2019-01-27T13:47:05.486Z,7.30
2019-01-27T13:49:34.968Z,7.30
2019-01-27T13:52:11.617Z,7.30
2019-01-27T13:54:41.271Z,7.30
2019-01-27T13:57:14.966Z,7.20
2019-01-27T13:59:48.665Z,7.20
2019-01-27T14:02:18.005Z,7.20
2019-01-27T14:04:50.667Z,7.20
2019-01-27T14:07:21.862Z,7.30
2019-01-27T14:09:56.417Z,7.20
2019-01-27T14:12:29.687Z,7.30
2019-01-27T14:14:59.563Z,7.20
2019-01-27T14:17:30.295Z,7.20
2019-01-27T14:20:00.255Z,7.30
2019-01-27T14:22:29.920Z,7.20
2019-01-27T14:24:59.305Z,7.20
2019-01-27T14:27:28.692Z,7.10
2019-01-27T14:29:58.093Z,7.10
2019-01-27T14:32:31.888Z,7.00
2019-01-27T14:35:05.736Z,7.00
2019-01-27T14:37:40.675Z,7.00
2019-01-27T14:40:13.192Z,6.90
2019-01-27T14:42:42.664Z,6.80
2019-01-27T14:45:18.842Z,6.80
2019-01-27T14:47:51.385Z,6.80
2019-01-27T14:50:23.364Z,6.80
2019-01-27T14:52:55.628Z,6.80
2019-01-27T14:55:27.196Z,6.70
2019-01-27T14:57:57.949Z,6.60
2019-01-27T15:00:36.190Z,6.50
2019-01-27T15:03:02.896Z,6.40
2019-01-27T15:05:32.277Z,6.30
2019-01-27T15:08:02.380Z,6.20
2019-01-27T15:10:31.956Z,6.20
2019-01-27T15:13:02.237Z,6.10
2019-01-27T15:15:35.296Z,6.10
2019-01-27T15:18:05.192Z,6.10
2019-01-27T15:21:02.094Z,6.00
2019-01-27T15:23:34.630Z,5.90
2019-01-27T15:26:03.654Z,6.00
2019-01-27T15:28:35.837Z,6.00
2019-01-27T15:31:05.315Z,6.00
2019-01-27T15:33:35.081Z,6.00
2019-01-27T15:36:08.486Z,6.00
2019-01-27T15:38:37.814Z,5.90
2019-01-27T15:41:07.236Z,6.00
2019-01-27T15:43:37.526Z,6.00
2019-01-27T15:46:06.907Z,6.00
2019-01-27T15:48:36.280Z,5.90
2019-01-27T15:51:06.364Z,5.90
2019-01-27T15:53:35.773Z,5.90
2019-01-27T15:56:05.532Z,5.80
2019-01-27T15:58:34.980Z,5.70
2019-01-27T16:01:04.946Z,5.60
2019-01-27T16:03:34.759Z,5.60
2019-01-27T16:06:05.029Z,5.50
2019-01-27T16:08:53.486Z,5.50
2019-01-27T16:11:23.189Z,5.50
2019-01-27T16:13:52.619Z,5.50
2019-01-27T16:16:25.026Z,5.40
2019-01-27T16:18:58.778Z,5.50
2019-01-27T16:21:27.137Z,5.50
2019-01-27T16:24:05.300Z,5.50
2019-01-27T16:26:34.757Z,5.50
2019-01-27T16:29:04.847Z,5.50
2019-01-27T16:31:45.277Z,5.50
2019-01-27T16:34:34.478Z,5.60
2019-01-27T16:37:10.407Z,5.60
2019-01-27T16:39:44.546Z,5.50
2019-01-27T16:42:14.449Z,5.50
2019-01-27T16:44:45.258Z,5.40
2019-01-27T16:47:18.992Z,5.30
2019-01-27T16:49:47.825Z,5.30
2019-01-27T16:52:20.142Z,5.20
2019-01-27T16:54:54.880Z,5.30
2019-01-27T16:57:24.824Z,5.40
2019-01-27T16:59:54.428Z,5.40
2019-01-27T17:02:23.842Z,5.30
2019-01-27T17:04:56.741Z,5.30
2019-01-27T17:07:31.396Z,5.40
2019-01-27T17:10:05.855Z,5.40
2019-01-27T17:12:36.381Z,5.30
2019-01-27T17:15:06.548Z,5.30
2019-01-27T17:17:36.901Z,5.30
2019-01-27T17:20:09.414Z,5.20
2019-01-27T17:22:39.930Z,5.20
2019-01-27T17:25:11.859Z,5.30
2019-01-27T17:27:42.533Z,5.30
2019-01-27T17:30:16.713Z,5.30
2019-01-27T17:32:46.401Z,5.30
2019-01-27T17:35:18.024Z,5.20
2019-01-27T17:37:49.176Z,5.30
2019-01-27T17:40:18.839Z,5.30
2019-01-27T17:42:50.185Z,5.30
2019-01-27T17:45:20.938Z,5.30
2019-01-27T17:47:51.565Z,5.30
2019-01-27T17:50:21.954Z,5.30
2019-01-27T17:52:51.294Z,5.20
2019-01-27T17:55:40.965Z,5.20
2019-01-27T17:58:33.669Z,5.10
2019-01-27T18:01:23.087Z,5.00
2019-01-27T18:04:23.196Z,5.10
2019-01-27T18:07:02.614Z,5.00
2019-01-27T18:09:47.742Z,5.00
2019-01-27T18:12:24.889Z,5.00
2019-01-27T18:14:54.638Z,5.00
2019-01-27T18:17:24.173Z,4.90
2019-01-27T18:19:54.768Z,4.90
2019-01-27T18:22:26.008Z,5.00
2019-01-27T18:24:55.824Z,5.00
2019-01-27T18:27:25.381Z,5.00
2019-01-27T18:29:55.764Z,5.10
2019-01-27T18:32:26.404Z,5.10
2019-01-27T18:34:59.503Z,5.10
2019-01-27T18:37:35.717Z,5.10
2019-01-27T18:40:06.399Z,5.10
2019-01-27T18:42:37.221Z,5.10
2019-01-27T18:45:09.529Z,5.10
2019-01-27T18:47:39.269Z,5.10
2019-01-27T18:50:12.126Z,5.00
2019-01-27T18:52:41.813Z,5.00
2019-01-27T18:55:24.465Z,4.90
2019-01-27T18:58:13.317Z,4.90
2019-01-27T19:01:14.456Z,4.90
2019-01-27T19:03:52.404Z,4.80
2019-01-27T19:06:35.083Z,4.80
2019-01-27T19:09:20.739Z,4.80
2019-01-27T19:12:00.837Z,4.80
2019-01-27T19:14:55.197Z,4.80
2019-01-27T19:17:40.729Z,4.80
2019-01-27T19:20:34.461Z,4.80
2019-01-27T19:23:11.241Z,4.80
2019-01-27T19:26:13.764Z,4.90
2019-01-27T19:28:56.127Z,4.80
2019-01-27T19:31:45.393Z,4.80
2019-01-27T19:34:34.018Z,4.70
2019-01-27T19:37:21.055Z,4.70
2019-01-27T19:40:08.718Z,4.70
2019-01-27T19:43:00.660Z,4.60
2019-01-27T19:45:47.714Z,4.60
2019-01-27T19:48:43.673Z,4.60
2019-01-27T19:51:30.534Z,4.60
2019-01-27T19:54:19.725Z,4.60
2019-01-27T19:57:06.104Z,4.50
2019-01-27T19:59:55.116Z,4.50
2019-01-27T20:02:48.337Z,4.40
2019-01-27T20:05:53.411Z,4.40
2019-01-27T20:08:39.575Z,4.50
2019-01-27T20:11:26.946Z,4.50
2019-01-27T20:14:15.356Z,4.40
2019-01-27T20:16:53.655Z,4.30
2019-01-27T20:19:34.148Z,4.30
2019-01-27T20:22:23.337Z,4.30
2019-01-27T20:25:07.469Z,4.30
2019-01-27T20:27:54.760Z,4.30
2019-01-27T20:30:49.482Z,4.20
2019-01-27T20:33:38.360Z,4.20
2019-01-27T20:36:29.520Z,4.20
2019-01-27T20:39:07.578Z,4.20
2019-01-27T20:41:45.449Z,4.10
2019-01-27T20:44:28.967Z,4.20
2019-01-27T20:47:08.004Z,4.20
2019-01-27T20:49:49.647Z,4.10
2019-01-27T20:52:45.689Z,4.00
2019-01-27T20:55:28.190Z,3.90
2019-01-27T20:58:27.711Z,3.70
2019-01-27T21:01:15.161Z,3.70
2019-01-27T21:04:02.460Z,3.70
2019-01-27T21:06:53.627Z,3.60
2019-01-27T21:09:47.380Z,3.40
2019-01-27T21:12:42.883Z,3.40
2019-01-27T21:15:37.359Z,3.40
2019-01-27T21:18:18.140Z,3.30
2019-01-27T21:20:53.604Z,3.30
2019-01-27T21:23:24.629Z,3.30
2019-01-27T21:25:56.995Z,3.30
2019-01-27T21:28:30.105Z,3.20
2019-01-27T21:30:58.985Z,3.20
2019-01-27T21:33:29.153Z,3.10
2019-01-27T21:35:58.501Z,3.10
2019-01-27T21:38:33.536Z,3.20
2019-01-27T21:41:07.659Z,3.20
2019-01-27T21:43:37.013Z,3.10
2019-01-27T21:46:11.175Z,3.10
2019-01-27T21:48:44.791Z,3.10
2019-01-27T21:51:20.155Z,3.10
2019-01-27T21:53:49.524Z,3.10
2019-01-27T21:56:20.434Z,3.20
2019-01-27T21:58:49.736Z,3.20
2019-01-27T22:01:19.325Z,3.10
2019-01-27T22:03:51.188Z,3.10
2019-01-27T22:06:22.222Z,3.00
2019-01-27T22:08:51.711Z,3.00
2019-01-27T22:11:24.583Z,2.90
2019-01-27T22:13:55.134Z,2.90
2019-01-27T22:16:28.324Z,2.90
2019-01-27T22:18:57.229Z,2.90
2019-01-27T22:21:28.763Z,2.90
2019-01-27T22:23:58.744Z,3.00
2019-01-27T22:26:31.322Z,3.00
2019-01-27T22:29:01.737Z,3.00
2019-01-27T22:31:31.618Z,3.00
2019-01-27T22:34:01.004Z,3.10
2019-01-27T22:36:31.922Z,3.10
2019-01-27T22:39:01.522Z,3.20
2019-01-27T22:41:30.926Z,3.20
2019-01-27T22:44:00.314Z,3.30
2019-01-27T22:46:29.742Z,3.40
2019-01-27T22:48:59.120Z,3.40
2019-01-27T22:51:30.936Z,3.50
2019-01-27T22:54:00.665Z,3.40
2019-01-27T22:56:30.034Z,3.40
2019-01-27T22:58:59.587Z,3.50
2019-01-27T23:01:29.011Z,3.50
2019-01-27T23:03:58.385Z,3.50
2019-01-27T23:06:27.769Z,3.50
2019-01-27T23:08:58.362Z,3.50
2019-01-27T23:11:29.822Z,3.50
2019-01-27T23:13:59.198Z,3.40
2019-01-27T23:16:29.208Z,3.50
2019-01-27T23:18:59.135Z,3.50
2019-01-27T23:21:28.729Z,3.50
2019-01-27T23:23:58.900Z,3.50
2019-01-27T23:26:28.332Z,3.60
2019-01-27T23:28:57.720Z,3.60
2019-01-27T23:31:31.855Z,3.60
2019-01-27T23:34:01.186Z,3.60
2019-01-27T23:36:30.564Z,3.70
2019-01-27T23:38:59.973Z,3.70
2019-01-27T23:41:29.349Z,3.70
2019-01-27T23:43:58.751Z,3.60
2019-01-27T23:46:28.212Z,3.60
2019-01-27T23:48:57.613Z,3.60
2019-01-27T23:51:26.992Z,3.60
2019-01-27T23:53:57.097Z,3.70
2019-01-27T23:56:27.021Z,3.60
2019-01-27T23:58:56.409Z,3.60
